Time;durP1;ratioP1;P1;durP2;ratioP2;P2;SDS_P1;SDS_P2;PMS_P1;PMS_P2;Temp;Humidity;BMP_temperature;BMP_pressure;BME280_temperature;BME280_humidity;BME280_pressure;Samples;Min_cycle;Max_cycle;Signal;HPM_P1;HPM_P2
2022/04/19 00:01:42;;;;;;;10.10;6.25;;;9.00;99.90;;;;;;5048314;28;20055;-73
2022/04/19 00:04:08;;;;;;;9.40;5.45;;;9.00;99.90;;;;;;5046625;28;20041;-73
2022/04/19 00:06:35;;;;;;;9.13;6.05;;;9.00;99.90;;;;;;5046845;28;20523;-74
2022/04/19 00:09:04;;;;;;;10.68;6.65;;;8.90;99.90;;;;;;5048809;28;20045;-73
2022/04/19 00:11:29;;;;;;;9.90;6.22;;;8.90;99.90;;;;;;5048661;28;20033;-72
2022/04/19 00:13:59;;;;;;;11.55;6.50;;;8.90;99.90;;;;;;5047656;28;20041;-73
2022/04/19 00:16:25;;;;;;;9.93;6.20;;;8.80;99.90;;;;;;5049620;28;20041;-73
2022/04/19 00:18:51;;;;;;;12.10;5.88;;;8.90;99.90;;;;;;5046503;28;20039;-73
2022/04/19 00:21:18;;;;;;;11.43;6.68;;;8.70;99.90;;;;;;5049963;28;20620;-73
2022/04/19 00:23:46;;;;;;;9.68;6.53;;;8.70;99.90;;;;;;5043007;28;20071;-73
2022/04/19 00:26:12;;;;;;;10.95;6.90;;;8.60;99.90;;;;;;5048562;28;20053;-73
2022/04/19 00:28:37;;;;;;;11.13;6.68;;;8.60;99.90;;;;;;5043667;28;20397;-74
2022/04/19 00:31:06;;;;;;;13.57;6.55;;;8.60;99.90;;;;;;5045449;28;20040;-73
2022/04/19 00:33:32;;;;;;;11.15;6.20;;;8.50;99.90;;;;;;5047271;28;20052;-73
2022/04/19 00:35:58;;;;;;;11.63;6.90;;;8.50;99.90;;;;;;5045324;28;20473;-73
2022/04/19 00:38:24;;;;;;;11.27;6.90;;;8.40;99.90;;;;;;5063334;28;20063;-73
2022/04/19 00:40:50;;;;;;;10.98;7.15;;;8.40;99.90;;;;;;5044313;28;20049;-73
2022/04/19 00:43:18;;;;;;;11.68;7.70;;;8.40;99.90;;;;;;5048220;28;20060;-73
2022/04/19 00:45:45;;;;;;;11.50;6.78;;;8.30;99.90;;;;;;5047339;28;20082;-73
2022/04/19 00:48:11;;;;;;;11.55;6.40;;;8.30;99.90;;;;;;5046995;28;20144;-73
2022/04/19 00:50:37;;;;;;;10.32;6.93;;;8.30;99.90;;;;;;5045285;28;20129;-73
2022/04/19 00:53:08;;;;;;;11.38;7.53;;;8.20;99.90;;;;;;5040561;28;20033;-73
2022/04/19 00:55:38;;;;;;;10.10;6.28;;;8.20;99.90;;;;;;5043291;28;20583;-73
2022/04/19 00:58:06;;;;;;;10.95;7.15;;;8.10;99.90;;;;;;5041481;28;20057;-73
2022/04/19 01:00:32;;;;;;;11.15;6.70;;;8.10;99.90;;;;;;5037890;28;20405;-74
2022/04/19 01:02:58;;;;;;;10.93;7.10;;;8.10;99.90;;;;;;5042358;28;20049;-73
2022/04/19 01:05:24;;;;;;;11.77;7.00;;;8.10;99.90;;;;;;5040695;28;20080;-73
2022/04/19 01:07:50;;;;;;;10.27;6.68;;;8.10;99.90;;;;;;5043848;28;20501;-73
2022/04/19 01:10:16;;;;;;;10.23;6.68;;;8.00;99.90;;;;;;5039861;28;20131;-73
2022/04/19 01:15:28;;;;;;;13.40;7.70;;;8.00;99.90;;;;;;5047154;28;20080;-73
2022/04/19 01:17:53;;;;;;;12.27;7.72;;;8.00;99.90;;;;;;5039303;28;20042;-73
2022/04/19 01:20:19;;;;;;;13.25;7.50;;;7.90;99.90;;;;;;5046600;28;20190;-73
2022/04/19 01:22:49;;;;;;;10.77;6.68;;;7.90;99.90;;;;;;5041840;28;20047;-73
2022/04/19 01:25:17;;;;;;;12.13;7.63;;;7.90;99.90;;;;;;5047438;28;20049;-73
2022/04/19 01:27:43;;;;;;;11.25;7.22;;;7.80;99.90;;;;;;5046541;28;20518;-73
2022/04/19 01:30:09;;;;;;;11.05;7.50;;;7.80;99.90;;;;;;5039855;28;20073;-73
2022/04/19 01:32:38;;;;;;;12.82;7.53;;;7.70;99.90;;;;;;5050534;28;20166;-73
2022/04/19 01:35:23;;;;;;;12.77;7.65;;;7.70;99.90;;;;;;5039849;28;20563;-73
2022/04/19 01:37:50;;;;;;;12.38;7.43;;;7.70;99.90;;;;;;5042130;28;20045;-73
2022/04/19 01:40:17;;;;;;;12.45;6.90;;;7.60;99.90;;;;;;5045131;28;20400;-73
2022/04/19 01:42:45;;;;;;;11.70;7.68;;;7.60;99.90;;;;;;5045051;28;20468;-73
2022/04/19 01:45:19;;;;;;;13.07;7.45;;;7.60;99.90;;;;;;5040960;28;20134;-73
2022/04/19 01:47:45;;;;;;;12.70;7.82;;;7.60;99.90;;;;;;5044956;28;20033;-73
2022/04/19 01:50:14;;;;;;;13.88;7.30;;;7.60;99.90;;;;;;5044843;28;20050;-73
2022/04/19 01:52:41;;;;;;;13.68;7.43;;;7.50;99.90;;;;;;5043047;28;20043;-73
2022/04/19 01:55:09;;;;;;;13.00;8.02;;;7.60;99.90;;;;;;5047351;28;20068;-72
2022/04/19 01:57:36;;;;;;;12.68;7.95;;;7.40;99.90;;;;;;5031719;28;20572;-73
2022/04/19 02:00:05;;;;;;;12.00;7.20;;;7.40;99.90;;;;;;5050106;28;20052;-73
2022/04/19 02:02:33;;;;;;;13.25;8.10;;;7.30;99.90;;;;;;5053023;28;20053;-73
2022/04/19 02:05:01;;;;;;;15.07;7.88;;;7.30;99.90;;;;;;5046364;28;20075;-73
2022/04/19 02:07:27;;;;;;;13.30;8.63;;;7.30;99.90;;;;;;5044097;28;20520;-74
2022/04/19 02:09:53;;;;;;;14.07;7.63;;;7.20;99.90;;;;;;5050907;28;20056;-73
2022/04/19 02:12:18;;;;;;;14.57;8.05;;;7.20;99.90;;;;;;5038403;28;20045;-73
2022/04/19 02:14:44;;;;;;;12.15;7.45;;;7.20;99.90;;;;;;5057866;28;20053;-73
2022/04/19 02:17:10;;;;;;;16.63;8.95;;;7.10;99.90;;;;;;5046680;28;20059;-73
2022/04/19 02:19:36;;;;;;;13.00;8.02;;;7.10;99.90;;;;;;5051368;28;20497;-73
2022/04/19 02:22:06;;;;;;;16.52;9.13;;;7.10;99.90;;;;;;5049784;28;20128;-73
2022/04/19 02:24:34;;;;;;;13.55;8.00;;;7.00;99.90;;;;;;5038137;28;20045;-72
2022/04/19 02:27:00;;;;;;;14.07;8.07;;;7.00;99.90;;;;;;5042982;28;21902;-73
2022/04/19 02:29:27;;;;;;;15.43;7.88;;;7.00;99.90;;;;;;5044355;28;20052;-73
2022/04/19 02:31:53;;;;;;;12.73;8.50;;;7.00;99.90;;;;;;5048467;28;20094;-73
2022/04/19 02:34:19;;;;;;;15.00;7.75;;;6.90;99.90;;;;;;5049853;28;20042;-73
2022/04/19 02:36:45;;;;;;;11.73;7.60;;;6.90;99.90;;;;;;5043947;28;20091;-73
2022/04/19 02:39:11;;;;;;;14.35;8.93;;;7.20;99.90;;;;;;5045370;28;20042;-73
2022/04/19 02:41:37;;;;;;;13.50;7.78;;;6.90;99.90;;;;;;5044123;28;20056;-73
2022/04/19 02:44:06;;;;;;;13.32;8.23;;;6.90;99.90;;;;;;5044331;28;20060;-73
2022/04/19 02:46:35;;;;;;;14.02;8.25;;;6.80;99.90;;;;;;5046348;28;20120;-72
2022/04/19 02:49:04;;;;;;;13.85;8.40;;;6.80;99.90;;;;;;5050667;28;21890;-73
2022/04/19 02:51:30;;;;;;;14.45;9.38;;;6.80;99.90;;;;;;5041947;28;20127;-73
2022/04/19 02:53:56;;;;;;;14.27;8.27;;;6.80;99.90;;;;;;5050400;28;20055;-73
2022/04/19 02:56:23;;;;;;;15.40;9.13;;;6.80;99.90;;;;;;5054579;28;20108;-73
2022/04/19 02:58:48;;;;;;;15.45;8.88;;;6.90;99.90;;;;;;5045161;28;20056;-72
2022/04/19 03:01:15;;;;;;;13.25;8.98;;;6.80;99.90;;;;;;5052562;28;20048;-73
2022/04/19 03:03:40;;;;;;;15.27;9.32;;;6.80;99.90;;;;;;5047146;28;20474;-73
2022/04/19 03:06:07;;;;;;;14.60;9.05;;;6.80;99.90;;;;;;5045635;28;20120;-73
2022/04/19 03:08:34;;;;;;;16.35;8.82;;;6.80;99.90;;;;;;5040683;28;20131;-73
2022/04/19 03:11:00;;;;;;;17.40;10.23;;;6.80;99.90;;;;;;5047637;28;20037;-73
2022/04/19 03:13:27;;;;;;;17.20;9.23;;;6.70;99.90;;;;;;5048333;28;20044;-73
2022/04/19 03:15:54;;;;;;;18.48;9.93;;;6.70;99.90;;;;;;5045689;28;20037;-73
2022/04/19 03:18:19;;;;;;;17.27;9.27;;;6.70;99.90;;;;;;5053514;28;20056;-73
2022/04/19 03:20:46;;;;;;;15.63;9.65;;;6.70;99.90;;;;;;5026935;28;20489;-71
2022/04/19 03:28:40;;;;;;;14.80;9.20;;;6.70;99.90;;;;;;5035654;28;19969;-73
2022/04/19 03:31:07;;;;;;;17.05;9.60;;;6.60;99.90;;;;;;5043173;28;20080;-72
2022/04/19 03:33:36;;;;;;;15.25;9.82;;;6.60;99.90;;;;;;5052018;28;20492;-73
2022/04/19 03:36:04;;;;;;;14.35;8.90;;;6.50;99.90;;;;;;5044496;28;20080;-72
2022/04/19 03:38:30;;;;;;;15.82;9.27;;;6.50;99.90;;;;;;5046411;28;20049;-73
2022/04/19 03:40:56;;;;;;;15.40;8.43;;;6.50;99.90;;;;;;5044530;28;20095;-73
2022/04/19 03:43:23;;;;;;;13.93;9.13;;;6.50;99.90;;;;;;5047527;28;20045;-73
2022/04/19 03:45:49;;;;;;;13.80;8.65;;;6.50;99.90;;;;;;5047952;28;20067;-73
2022/04/19 03:48:16;;;;;;;15.20;9.38;;;6.40;99.90;;;;;;5051257;28;20567;-73
2022/04/19 03:50:45;;;;;;;16.80;9.23;;;6.40;99.90;;;;;;5049780;28;20036;-73
2022/04/19 03:53:12;;;;;;;15.00;8.88;;;6.40;99.90;;;;;;5049900;28;20073;-73
2022/04/19 03:55:37;;;;;;;15.52;8.52;;;6.40;99.90;;;;;;5049630;28;20037;-73
2022/04/19 03:58:03;;;;;;;13.25;8.32;;;6.30;99.90;;;;;;5050604;28;20060;-73
2022/04/19 04:00:29;;;;;;;13.40;8.35;;;6.30;99.90;;;;;;5049595;28;20061;-73
2022/04/19 04:02:55;;;;;;;12.70;8.10;;;6.30;99.90;;;;;;5048285;28;20087;-73
2022/04/19 04:05:24;;;;;;;17.17;8.30;;;6.30;99.90;;;;;;5045165;28;20037;-73
2022/04/19 04:07:51;;;;;;;16.40;8.40;;;6.30;99.90;;;;;;5051105;28;20044;-73
2022/04/19 04:10:16;;;;;;;13.57;8.43;;;6.30;99.90;;;;;;5046789;28;20052;-73
2022/04/19 04:12:42;;;;;;;13.43;8.02;;;6.30;99.90;;;;;;5050585;28;20393;-72
2022/04/19 04:15:08;;;;;;;14.50;8.68;;;6.30;99.90;;;;;;5048865;28;20088;-73
2022/04/19 04:17:34;;;;;;;13.90;8.55;;;6.30;99.90;;;;;;5048559;28;20040;-73
2022/04/19 04:20:00;;;;;;;14.57;8.43;;;6.20;99.90;;;;;;5048982;28;20432;-73
2022/04/19 04:22:26;;;;;;;15.05;8.35;;;6.20;99.90;;;;;;5044040;28;20049;-73
2022/04/19 04:24:52;;;;;;;15.05;8.15;;;6.20;99.90;;;;;;5048550;28;20053;-73
2022/04/19 04:27:17;;;;;;;12.63;7.13;;;6.20;99.90;;;;;;5051454;28;20512;-73
2022/04/19 04:29:43;;;;;;;13.85;8.27;;;6.20;99.90;;;;;;5050240;28;20068;-73
2022/04/19 04:32:09;;;;;;;14.00;8.23;;;6.10;99.90;;;;;;5049118;28;20040;-73
2022/04/19 04:34:35;;;;;;;15.75;8.40;;;6.10;99.90;;;;;;5046681;28;20041;-73
2022/04/19 04:37:03;;;;;;;16.55;7.97;;;6.10;99.90;;;;;;5047702;28;20087;-72
2022/04/19 04:39:30;;;;;;;13.45;7.50;;;6.10;99.90;;;;;;5049027;28;20420;-73
2022/04/19 04:41:56;;;;;;;13.43;8.25;;;6.10;99.90;;;;;;5046977;28;20040;-73
2022/04/19 04:44:22;;;;;;;16.02;7.75;;;6.10;99.90;;;;;;5046782;28;20056;-73
2022/04/19 04:49:41;;;;;;;16.17;8.15;;;6.00;99.90;;;;;;5042283;28;20068;-73
2022/04/19 04:52:08;;;;;;;;;;;6.10;99.90;;;;;;5044878;28;20469;-73
2022/04/19 04:54:35;;;;;;;14.07;8.10;;;6.10;99.90;;;;;;5045416;28;19974;-73
2022/04/19 04:57:04;;;;;;;14.88;7.68;;;6.10;99.90;;;;;;5043430;28;20045;-74
2022/04/19 04:59:31;;;;;;;15.90;8.32;;;6.10;99.90;;;;;;5045147;28;20519;-74
2022/04/19 05:01:57;;;;;;;16.17;8.52;;;6.10;99.90;;;;;;5041709;28;20055;-74
2022/04/19 05:04:23;;;;;;;16.25;8.43;;;6.10;99.90;;;;;;5044796;28;20029;-74
2022/04/19 05:06:48;;;;;;;19.52;8.75;;;6.10;99.90;;;;;;5042755;28;20123;-76
2022/04/19 05:09:14;;;;;;;14.73;8.02;;;6.20;99.90;;;;;;5043656;28;20037;-76
2022/04/19 05:11:40;;;;;;;16.35;8.20;;;6.20;99.90;;;;;;5050003;28;20052;-76
2022/04/19 05:14:07;;;;;;;15.65;7.60;;;6.30;99.90;;;;;;5049069;28;20055;-76
2022/04/19 05:16:34;;;;;;;15.73;8.13;;;6.30;99.90;;;;;;5050224;28;20037;-76
2022/04/19 05:18:59;;;;;;;16.45;8.32;;;6.30;99.90;;;;;;5050410;28;20033;-77
2022/04/19 05:21:25;;;;;;;14.02;8.10;;;6.40;99.90;;;;;;5042718;28;20056;-75
2022/04/19 05:23:51;;;;;;;15.85;8.32;;;6.40;99.90;;;;;;5046451;28;20041;-75
2022/04/19 05:26:16;;;;;;;13.48;7.88;;;6.40;99.90;;;;;;5043203;28;20084;-75
2022/04/19 05:28:42;;;;;;;15.27;7.70;;;6.50;99.90;;;;;;5049605;28;20106;-75
2022/04/19 05:31:07;;;;;;;17.13;7.75;;;6.50;99.90;;;;;;5049535;28;20037;-75
2022/04/19 05:33:33;;;;;;;13.75;7.90;;;6.60;99.90;;;;;;5047653;28;20041;-73
2022/04/19 05:35:58;;;;;;;15.07;8.18;;;6.60;99.90;;;;;;5049690;28;20052;-73
2022/04/19 05:38:26;;;;;;;14.02;8.23;;;6.60;99.90;;;;;;5049123;28;20044;-76
2022/04/19 05:40:52;;;;;;;16.77;8.63;;;6.70;99.90;;;;;;5056126;28;20044;-75
2022/04/19 05:43:17;;;;;;;16.55;8.57;;;6.70;99.90;;;;;;5047236;28;20052;-76
2022/04/19 05:45:43;;;;;;;17.90;8.40;;;6.80;99.90;;;;;;5044392;28;20539;-76
2022/04/19 05:48:08;;;;;;;14.38;7.53;;;6.80;99.90;;;;;;5045266;28;20049;-76
2022/04/19 05:50:34;;;;;;;14.77;8.15;;;6.90;99.90;;;;;;5046421;28;20403;-76
2022/04/19 05:53:00;;;;;;;19.55;9.15;;;6.90;99.90;;;;;;5048058;28;20147;-77
2022/04/19 05:55:26;;;;;;;16.42;9.30;;;6.90;99.90;;;;;;5042301;28;20037;-75
2022/04/19 05:57:51;;;;;;;15.23;8.90;;;7.00;99.90;;;;;;5045275;28;21570;-76
2022/04/19 06:00:17;;;;;;;16.95;9.80;;;7.00;99.90;;;;;;5044692;28;20045;-74
2022/04/19 06:05:27;;;;;;;16.83;9.38;;;7.20;99.90;;;;;;5041988;28;20048;-75
2022/04/19 06:07:54;;;;;;;16.65;8.95;;;7.20;99.90;;;;;;5042545;28;20038;-76
2022/04/19 06:10:20;;;;;;;16.98;8.90;;;7.30;99.90;;;;;;5038856;28;20076;-76
2022/04/19 06:12:46;;;;;;;15.48;9.50;;;7.30;99.90;;;;;;5040353;28;20481;-77
2022/04/19 06:15:12;;;;;;;16.58;9.80;;;7.40;99.90;;;;;;5039950;28;20045;-70
2022/04/19 06:17:40;;;;;;;17.80;9.35;;;7.40;99.90;;;;;;5039747;28;20122;-73
2022/04/19 06:20:07;;;;;;;16.75;9.18;;;7.50;99.90;;;;;;5048970;28;20036;-73
2022/04/19 06:22:33;;;;;;;17.05;9.40;;;7.50;99.90;;;;;;5045102;28;20128;-74
2022/04/19 06:24:59;;;;;;;19.85;9.98;;;7.60;99.90;;;;;;5044091;28;20415;-73
2022/04/19 06:27:25;;;;;;;18.10;9.38;;;7.60;99.90;;;;;;5052607;28;20460;-73
2022/04/19 06:29:56;;;;;;;21.65;9.40;;;7.80;99.90;;;;;;5042526;28;20077;-72
2022/04/19 06:32:22;;;;;;;18.58;9.18;;;7.90;99.90;;;;;;5044535;28;20045;-73
2022/04/19 06:34:48;;;;;;;15.88;9.10;;;8.00;99.90;;;;;;5037137;28;20037;-74
2022/04/19 06:37:14;;;;;;;16.35;8.75;;;8.10;99.90;;;;;;5046178;28;20051;-74
2022/04/19 06:39:40;;;;;;;15.82;8.25;;;8.30;99.90;;;;;;5047118;28;20115;-74
2022/04/19 06:42:05;;;;;;;14.95;8.63;;;8.40;99.90;;;;;;5052252;28;20121;-74
2022/04/19 06:44:31;;;;;;;14.63;8.60;;;8.50;99.90;;;;;;5052763;28;20033;-75
2022/04/19 06:46:57;;;;;;;18.83;8.65;;;8.60;99.90;;;;;;5043945;28;20111;-74
2022/04/19 06:49:23;;;;;;;16.55;8.50;;;8.60;99.90;;;;;;5049204;28;20515;-74
2022/04/19 06:51:49;;;;;;;17.67;8.82;;;8.70;99.90;;;;;;5045718;28;20036;-74
2022/04/19 06:54:15;;;;;;;15.55;8.77;;;8.80;99.90;;;;;;5044751;28;20131;-75
2022/04/19 06:56:42;;;;;;;18.17;9.68;;;8.90;99.90;;;;;;5047516;28;20437;-74
2022/04/19 06:59:08;;;;;;;17.23;8.40;;;9.00;99.90;;;;;;5049636;28;20432;-74
2022/04/19 07:01:35;;;;;;;14.50;7.72;;;9.10;99.90;;;;;;5047324;28;20036;-73
2022/04/19 07:04:01;;;;;;;14.45;8.02;;;9.20;99.90;;;;;;5060745;28;20404;-73
2022/04/19 07:06:27;;;;;;;15.00;8.27;;;9.30;99.90;;;;;;5049088;28;20269;-74
2022/04/19 07:08:52;;;;;;;13.75;7.82;;;9.40;99.90;;;;;;5045419;28;20197;-73
2022/04/19 07:11:18;;;;;;;14.48;7.78;;;9.40;99.90;;;;;;5045851;28;20044;-74
2022/04/19 07:13:44;;;;;;;14.88;8.63;;;9.50;99.90;;;;;;5046403;28;20041;-74
2022/04/19 07:16:09;;;;;;;13.05;7.95;;;9.60;99.90;;;;;;5035567;28;20045;-74
2022/04/19 07:18:35;;;;;;;16.30;8.10;;;9.60;99.90;;;;;;5040975;28;20048;-74
2022/04/19 07:26:40;;;;;;;13.23;7.32;;;9.90;99.90;;;;;;5043175;28;20041;-74
2022/04/19 07:29:12;;;;;;;13.70;7.47;;;10.00;99.90;;;;;;5041768;28;20033;-74
2022/04/19 07:31:39;;;;;;;12.77;6.88;;;10.00;99.90;;;;;;5044261;28;20045;-74
2022/04/19 07:34:05;;;;;;;12.93;7.47;;;10.10;99.90;;;;;;5046423;28;20044;-74
2022/04/19 07:36:31;;;;;;;10.98;7.28;;;10.20;99.90;;;;;;5037088;28;20053;-74
2022/04/19 07:38:58;;;;;;;16.52;7.78;;;10.30;99.90;;;;;;5044765;28;20428;-74
2022/04/19 07:41:25;;;;;;;12.77;7.35;;;10.30;99.90;;;;;;5042025;28;20043;-74
2022/04/19 07:43:51;;;;;;;12.38;6.88;;;10.40;99.90;;;;;;5046324;28;20033;-74
2022/04/19 07:46:18;;;;;;;12.60;6.35;;;10.50;99.90;;;;;;5041287;28;20170;-74
2022/04/19 07:48:44;;;;;;;12.88;6.25;;;10.50;99.90;;;;;;5041715;28;20406;-74
2022/04/19 07:51:11;;;;;;;11.27;6.43;;;10.60;99.90;;;;;;5037191;28;20083;-74
2022/04/19 07:53:36;;;;;;;10.80;6.05;;;10.70;99.90;;;;;;5040819;28;20064;-73
2022/04/19 07:56:02;;;;;;;13.35;6.75;;;10.70;99.90;;;;;;5040023;28;20077;-74
2022/04/19 07:58:28;;;;;;;14.45;7.35;;;10.80;99.90;;;;;;5049451;28;20626;-73
2022/04/19 08:00:53;;;;;;;10.23;6.13;;;10.80;99.90;;;;;;5046108;28;20090;-74
2022/04/19 08:03:19;;;;;;;15.88;6.80;;;10.90;99.90;;;;;;5046045;28;20037;-73
2022/04/19 08:05:45;;;;;;;12.98;6.53;;;10.90;99.90;;;;;;5045927;28;20041;-74
2022/04/19 08:08:10;;;;;;;10.30;6.47;;;11.00;99.90;;;;;;5045938;28;20029;-73
2022/04/19 08:10:36;;;;;;;9.77;5.53;;;11.10;99.90;;;;;;5046429;28;20472;-73
2022/04/19 08:13:04;;;;;;;11.60;6.53;;;11.20;99.90;;;;;;5047075;28;20052;-74
2022/04/19 08:15:30;;;;;;;10.45;5.78;;;11.40;99.90;;;;;;5038592;28;20393;-73
2022/04/19 08:17:57;;;;;;;10.30;5.97;;;11.40;99.90;;;;;;5043566;28;20037;-73
2022/04/19 08:20:23;;;;;;;13.32;5.00;;;11.50;99.90;;;;;;5045814;28;20056;-73
2022/04/19 08:22:48;;;;;;;10.40;4.57;;;11.60;99.90;;;;;;5032670;28;20385;-74
2022/04/19 08:25:14;;;;;;;8.40;4.20;;;11.80;99.90;;;;;;5040232;28;20123;-74
2022/04/19 08:27:42;;;;;;;10.45;4.70;;;11.90;99.90;;;;;;5042670;28;20482;-73
2022/04/19 08:30:09;;;;;;;9.15;3.90;;;12.10;99.90;;;;;;5036461;28;20128;-74
2022/04/19 08:32:35;;;;;;;9.80;3.78;;;12.20;99.90;;;;;;5054189;28;20041;-74
2022/04/19 08:35:01;;;;;;;6.32;3.30;;;12.40;99.90;;;;;;5045647;28;20045;-74
2022/04/19 08:37:45;;;;;;;6.97;3.20;;;12.50;99.90;;;;;;5045781;28;20107;-74
2022/04/19 08:40:13;;;;;;;8.02;2.88;;;12.70;99.90;;;;;;5045585;28;20049;-74
2022/04/19 08:42:40;;;;;;;5.85;2.38;;;12.90;99.90;;;;;;5045407;28;20083;-74
2022/04/19 08:45:08;;;;;;;7.50;2.90;;;13.00;99.90;;;;;;5034758;28;20373;-74
2022/04/19 08:47:38;;;;;;;5.32;2.17;;;13.20;97.90;;;;;;5036317;28;20485;-74
2022/04/19 08:50:06;;;;;;;6.05;2.92;;;13.30;97.80;;;;;;5042645;28;20488;-74
2022/04/19 08:52:33;;;;;;;4.07;1.70;;;13.50;96.90;;;;;;5048418;28;20041;-74
2022/04/19 08:57:43;;;;;;;5.07;1.67;;;13.80;93.50;;;;;;5046212;28;20493;-74
2022/04/19 09:00:10;;;;;;;7.72;2.00;;;13.90;92.40;;;;;;5044844;28;20049;-74
2022/04/19 09:02:39;;;;;;;11.20;1.90;;;14.00;90.90;;;;;;5044200;28;20049;-74
2022/04/19 09:05:19;;;;;;;4.68;1.85;;;14.00;90.80;;;;;;5045578;28;20051;-74
2022/04/19 09:07:46;;;;;;;5.13;1.70;;;14.10;89.90;;;;;;5043697;28;20048;-74
2022/04/19 09:10:24;;;;;;;4.63;1.85;;;14.20;90.60;;;;;;5038735;28;20075;-74
2022/04/19 09:13:01;;;;;;;10.38;1.95;;;14.30;89.70;;;;;;5034388;28;20485;-74
2022/04/19 09:15:35;;;;;;;8.35;1.60;;;14.40;90.90;;;;;;5042731;28;20152;-74
2022/04/19 09:18:00;;;;;;;3.80;1.58;;;14.50;89.40;;;;;;5042781;28;20042;-74
2022/04/19 09:20:26;;;;;;;8.20;1.40;;;14.60;89.20;;;;;;5035203;28;20042;-74
2022/04/19 09:23:07;;;;;;;4.65;1.70;;;14.70;90.70;;;;;;5037378;28;20114;-74
2022/04/19 09:25:33;;;;;;;3.15;1.50;;;14.80;89.50;;;;;;5042445;28;20087;-74
2022/04/19 09:28:00;;;;;;;3.58;1.50;;;14.90;89.80;;;;;;5030992;28;20033;-74
2022/04/19 09:30:31;;;;;;;7.05;1.70;;;14.90;88.40;;;;;;5037726;28;20114;-74
2022/04/19 09:33:16;;;;;;;4.47;1.42;;;15.00;88.40;;;;;;5041960;28;20041;-74
2022/04/19 09:35:48;;;;;;;3.92;1.70;;;15.10;89.90;;;;;;5041229;28;20044;-74
2022/04/19 09:38:14;;;;;;;3.70;1.95;;;15.20;90.50;;;;;;5037931;28;20045;-74
2022/04/19 09:40:48;;;;;;;5.78;1.65;;;15.30;90.10;;;;;;5042380;28;20468;-74
2022/04/19 09:43:16;;;;;;;4.88;2.10;;;15.40;88.20;;;;;;5039943;28;20182;-74
2022/04/19 09:46:03;;;;;;;6.20;1.88;;;15.50;87.50;;;;;;5032924;28;20366;-74
2022/04/19 09:48:36;;;;;;;4.57;1.98;;;15.50;87.00;;;;;;5039511;28;20041;-74
2022/04/19 09:51:10;;;;;;;5.13;2.10;;;15.60;88.60;;;;;;5037252;28;20061;-74
2022/04/19 09:53:42;;;;;;;6.32;1.92;;;15.70;87.60;;;;;;5042235;28;20041;-74
2022/04/19 09:56:13;;;;;;;8.10;2.20;;;15.80;87.30;;;;;;5043606;28;20132;-74
2022/04/19 09:58:41;;;;;;;4.55;1.60;;;15.90;85.10;;;;;;5038176;28;20497;-73
2022/04/19 10:01:07;;;;;;;3.75;1.55;;;15.90;85.80;;;;;;5036557;28;20507;-76
2022/04/19 10:09:05;;;;;;;4.65;1.83;;;16.10;84.60;;;;;;5045302;28;20041;-74
2022/04/19 10:11:32;;;;;;;6.05;2.35;;;16.20;86.50;;;;;;5046718;28;20441;-75
2022/04/19 10:13:59;;;;;;;4.95;1.85;;;16.30;84.00;;;;;;5047603;28;20435;-75
2022/04/19 10:16:27;;;;;;;5.97;2.10;;;16.30;85.50;;;;;;5046093;28;20041;-76
2022/04/19 10:18:53;;;;;;;4.40;1.90;;;16.50;87.20;;;;;;5040012;28;20041;-75
2022/04/19 10:21:28;;;;;;;7.18;2.40;;;16.60;85.90;;;;;;5046695;28;20049;-75
2022/04/19 10:24:09;;;;;;;4.20;2.35;;;16.70;84.20;;;;;;5041926;28;20159;-75
2022/04/19 10:26:42;;;;;;;6.60;2.13;;;16.90;85.30;;;;;;5043285;28;20048;-75
2022/04/19 10:29:28;;;;;;;6.93;2.17;;;16.90;85.30;;;;;;5053052;28;20048;-76
2022/04/19 10:32:03;;;;;;;4.22;2.28;;;16.90;82.60;;;;;;5039177;28;20091;-75
2022/04/19 10:34:33;;;;;;;;;;;17.00;81.80;;;;;;5048451;28;20052;-75
2022/04/19 10:37:11;;;;;;;7.57;2.65;;;17.10;81.80;;;;;;5040768;28;19940;-75
2022/04/19 10:39:47;;;;;;;7.65;2.15;;;17.10;82.10;;;;;;5036821;28;20049;-76
2022/04/19 10:42:32;;;;;;;5.10;2.17;;;17.20;82.40;;;;;;5058971;28;20045;-76
2022/04/19 10:45:18;;;;;;;6.18;2.55;;;17.20;80.00;;;;;;5039446;28;20127;-75
2022/04/19 10:47:58;;;;;;;5.72;2.10;;;17.40;81.50;;;;;;5041143;28;20098;-75
2022/04/19 10:50:30;;;;;;;5.47;2.25;;;17.50;82.70;;;;;;5040021;28;20136;-74
2022/04/19 10:53:10;;;;;;;9.55;2.00;;;17.60;79.30;;;;;;5046663;28;20049;-74
2022/04/19 10:55:41;;;;;;;6.03;2.38;;;17.70;80.50;;;;;;5049679;28;20083;-74
2022/04/19 10:58:21;;;;;;;6.30;2.20;;;17.90;81.10;;;;;;5060072;28;20072;-74
2022/04/19 11:00:53;;;;;;;5.22;1.85;;;18.00;78.30;;;;;;5033614;28;20049;-74
2022/04/19 11:03:20;;;;;;;6.45;2.25;;;18.20;79.80;;;;;;5034030;28;20128;-74
2022/04/19 11:05:50;;;;;;;9.15;3.00;;;18.30;79.40;;;;;;5033503;28;20060;-74
2022/04/19 11:08:30;;;;;;;6.00;2.55;;;18.30;76.20;;;;;;5043140;28;20076;-73
2022/04/19 11:10:56;;;;;;;8.77;2.55;;;18.30;77.80;;;;;;5053369;28;20511;-72
2022/04/19 11:13:31;;;;;;;5.53;2.80;;;18.50;79.20;;;;;;5053000;28;20045;-74
2022/04/19 11:16:06;;;;;;;7.45;2.70;;;18.50;78.10;;;;;;5038971;28;20755;-74
2022/04/19 11:18:56;;;;;;;5.80;2.22;;;18.70;76.00;;;;;;5051611;28;20514;-74
2022/04/19 11:21:56;;;;;;;5.53;2.40;;;18.80;76.30;;;;;;5053040;28;20546;-73
2022/04/19 11:24:59;;;;;;;5.97;2.38;;;18.90;73.60;;;;;;5035620;28;20140;-74
2022/04/19 11:27:54;;;;;;;4.93;2.15;;;18.90;75.80;;;;;;5038296;28;20485;-73
2022/04/19 11:30:26;;;;;;;4.30;2.03;;;19.00;74.60;;;;;;5034056;28;20049;-75
2022/04/19 11:32:53;;;;;;;4.05;2.30;;;19.00;72.80;;;;;;5055904;28;20049;-74
2022/04/19 11:35:19;;;;;;;4.43;2.38;;;19.00;73.60;;;;;;5052640;28;20433;-74
2022/04/19 11:37:45;;;;;;;5.63;2.50;;;19.00;72.30;;;;;;5053200;28;20671;-74
2022/04/19 11:48:45;;;;;;;;;;;19.30;73.20;;;;;;5046375;28;20447;-74
2022/04/19 11:51:12;;;;;;;4.35;2.10;;;19.40;70.40;;;;;;5052659;28;19967;-74
2022/04/19 11:53:39;;;;;;;6.30;2.60;;;19.50;73.00;;;;;;5052065;28;20076;-74
2022/04/19 11:56:06;;;;;;;3.40;2.00;;;19.60;71.00;;;;;;5052288;28;20036;-72
2022/04/19 11:58:32;;;;;;;5.80;2.35;;;19.70;71.20;;;;;;5050815;28;20059;-73
2022/04/19 12:01:06;;;;;;;5.03;2.50;;;19.80;71.50;;;;;;5052172;28;20092;-74
2022/04/19 12:03:36;;;;;;;5.03;1.88;;;19.90;71.20;;;;;;5052174;28;20076;-74
2022/04/19 12:06:20;;;;;;;4.40;1.80;;;20.00;69.40;;;;;;5052704;28;20060;-74
2022/04/19 12:08:49;;;;;;;6.82;1.77;;;20.00;71.20;;;;;;5050520;28;20048;-74
2022/04/19 12:11:24;;;;;;;5.70;1.80;;;20.10;71.60;;;;;;5052613;28;20449;-74
2022/04/19 12:13:50;;;;;;;4.40;1.45;;;20.20;69.20;;;;;;5051170;28;20060;-72
2022/04/19 12:16:53;;;;;;;3.30;1.70;;;20.20;67.80;;;;;;5051141;28;20041;-73
2022/04/19 12:19:35;;;;;;;5.40;1.88;;;20.20;67.10;;;;;;5031957;28;20136;-73
2022/04/19 12:22:02;;;;;;;4.00;1.95;;;20.20;68.00;;;;;;5042500;28;20036;-72
2022/04/19 12:24:29;;;;;;;5.88;2.55;;;20.20;67.50;;;;;;5045375;28;20041;-74
2022/04/19 12:27:04;;;;;;;4.10;1.80;;;20.10;67.20;;;;;;5051972;28;20519;-74
2022/04/19 12:29:30;;;;;;;5.28;1.90;;;20.10;68.60;;;;;;5050688;28;20045;-76
2022/04/19 12:31:58;;;;;;;5.20;2.20;;;20.10;67.80;;;;;;5050950;28;20499;-75
2022/04/19 12:34:31;;;;;;;7.45;2.00;;;20.10;66.40;;;;;;5051749;28;20040;-76
2022/04/19 12:37:08;;;;;;;5.43;1.85;;;20.10;67.50;;;;;;5051354;28;20428;-76
2022/04/19 12:39:34;;;;;;;5.40;1.83;;;20.30;68.00;;;;;;5064292;28;20051;-75
2022/04/19 12:42:08;;;;;;;3.67;1.40;;;20.40;67.40;;;;;;5051252;28;20068;-75
2022/04/19 12:44:39;;;;;;;4.65;1.90;;;20.50;65.60;;;;;;5051468;28;20045;-75
2022/04/19 12:47:14;;;;;;;8.20;1.80;;;20.40;65.50;;;;;;5052589;28;20477;-76
2022/04/19 12:49:44;;;;;;;6.05;1.60;;;20.40;65.60;;;;;;5053006;28;20051;-76
2022/04/19 12:52:11;;;;;;;4.05;1.63;;;20.40;66.40;;;;;;5050408;28;20037;-76
2022/04/19 12:54:38;;;;;;;7.53;2.88;;;20.30;66.40;;;;;;5051737;28;20496;-75
2022/04/19 12:57:12;;;;;;;5.97;2.33;;;20.30;65.20;;;;;;5050367;28;20037;-75
2022/04/19 12:59:38;;;;;;;7.97;1.90;;;20.20;66.80;;;;;;5049880;28;20135;-75
2022/04/19 13:02:06;;;;;;;5.05;1.98;;;20.30;67.20;;;;;;5051119;28;20152;-76
2022/04/19 13:04:34;;;;;;;4.32;2.25;;;20.30;66.90;;;;;;5047765;28;20044;-75
2022/04/19 13:12:28;;;;;;;7.10;2.17;;;20.50;65.40;;;;;;5041666;28;20080;-76
2022/04/19 13:14:56;;;;;;;5.07;1.70;;;20.50;65.30;;;;;;5047961;28;20540;-76
2022/04/19 13:17:23;;;;;;;3.78;1.77;;;20.60;65.90;;;;;;5050494;28;20167;-77
2022/04/19 13:19:49;;;;;;;3.28;1.70;;;20.70;65.90;;;;;;5050094;28;20136;-76
2022/04/19 13:22:15;;;;;;;3.97;2.08;;;20.70;65.50;;;;;;5045260;28;20127;-76
2022/04/19 13:24:42;;;;;;;4.15;2.30;;;20.70;65.60;;;;;;5049301;28;20057;-76
2022/04/19 13:27:09;;;;;;;4.30;2.15;;;20.80;65.90;;;;;;5048046;28;20044;-76
2022/04/19 13:29:36;;;;;;;7.63;3.00;;;20.80;65.00;;;;;;5049415;28;20114;-76
2022/04/19 13:32:02;;;;;;;5.25;2.60;;;20.70;65.30;;;;;;5048967;28;20103;-81
2022/04/19 13:34:28;;;;;;;3.45;1.95;;;20.70;65.10;;;;;;5048286;28;20084;-74
2022/04/19 13:37:01;;;;;;;6.20;2.42;;;20.70;66.00;;;;;;5048934;28;20122;-74